createdAt,value
2022-08-28T00:00:54.291Z,61.00
2022-08-28T00:03:21.005Z,61.20
2022-08-28T00:05:47.833Z,60.40
2022-08-28T00:08:17.061Z,60.40
2022-08-28T00:10:44.745Z,60.90
2022-08-28T00:13:18.873Z,60.60
2022-08-28T00:15:49.198Z,60.20
2022-08-28T00:18:17.385Z,59.90
2022-08-28T00:20:44.767Z,60.20
2022-08-28T00:23:11.461Z,60.80
2022-08-28T00:25:38.145Z,60.10
2022-08-28T00:28:08.786Z,60.70
2022-08-28T00:30:44.063Z,60.10
2022-08-28T00:33:17.408Z,60.30
2022-08-28T00:35:44.220Z,61.30
2022-08-28T00:38:12.607Z,61.20
2022-08-28T00:40:42.757Z,62.60
2022-08-28T00:43:20.972Z,61.20
2022-08-28T00:45:48.086Z,61.00
2022-08-28T00:48:14.848Z,60.60
2022-08-28T00:51:00.778Z,60.20
2022-08-28T00:53:32.768Z,60.30
2022-08-28T00:56:04.161Z,61.00
2022-08-28T00:58:35.100Z,61.60
2022-08-28T01:01:01.842Z,62.10
2022-08-28T01:03:28.780Z,61.90
2022-08-28T01:05:55.763Z,61.70
2022-08-28T01:08:23.063Z,61.20
2022-08-28T01:10:55.329Z,61.80
2022-08-28T01:13:24.641Z,61.50
2022-08-28T01:15:51.691Z,61.50
2022-08-28T01:18:20.200Z,62.00
2022-08-28T01:21:23.770Z,61.90
2022-08-28T01:23:58.400Z,61.90
2022-08-28T01:26:29.096Z,61.50
2022-08-28T01:29:00.784Z,61.30
2022-08-28T01:31:31.200Z,60.90
2022-08-28T01:34:01.029Z,61.30
2022-08-28T01:36:29.197Z,61.00
2022-08-28T01:39:00.941Z,61.00
2022-08-28T01:41:29.514Z,60.70
2022-08-28T01:43:56.383Z,61.20
2022-08-28T01:46:23.214Z,61.20
2022-08-28T01:48:50.006Z,61.10
2022-08-28T01:51:19.478Z,62.20
2022-08-28T01:53:49.524Z,62.10
2022-08-28T01:56:17.692Z,62.10
2022-08-28T01:58:44.936Z,61.80
2022-08-28T02:01:18.966Z,61.80
2022-08-28T02:03:46.694Z,62.50
2022-08-28T02:06:15.048Z,62.60
2022-08-28T02:08:41.882Z,62.50
2022-08-28T02:11:09.139Z,63.00
2022-08-28T02:13:37.282Z,62.00
2022-08-28T02:16:06.156Z,61.60
2022-08-28T02:18:33.025Z,61.00
2022-08-28T02:20:59.754Z,60.80
2022-08-28T02:23:26.642Z,60.40
2022-08-28T02:25:53.507Z,60.70
2022-08-28T02:28:20.410Z,61.60
2022-08-28T02:30:47.297Z,61.60
2022-08-28T02:33:14.756Z,61.60
2022-08-28T02:35:42.491Z,61.20
2022-08-28T02:38:10.103Z,61.10
2022-08-28T02:40:37.325Z,62.40
2022-08-28T02:43:05.532Z,62.20
2022-08-28T02:45:32.742Z,61.80
2022-08-28T02:48:03.460Z,61.90
2022-08-28T02:50:31.073Z,62.60
2022-08-28T02:52:58.019Z,61.80
2022-08-28T02:55:25.475Z,62.70
2022-08-28T02:57:54.580Z,63.00
2022-08-28T03:00:24.199Z,62.00
2022-08-28T03:02:51.542Z,62.50
2022-08-28T03:05:21.577Z,61.60
2022-08-28T03:07:49.507Z,61.30
2022-08-28T03:10:16.394Z,61.10
2022-08-28T03:12:43.127Z,60.90
2022-08-28T03:15:10.308Z,60.80
2022-08-28T03:17:37.403Z,60.80
2022-08-28T03:20:07.934Z,60.40
2022-08-28T03:22:53.369Z,60.10
2022-08-28T03:25:20.257Z,60.60
2022-08-28T03:27:46.950Z,60.60
2022-08-28T03:30:14.393Z,60.50
2022-08-28T03:32:41.216Z,61.30
2022-08-28T03:35:08.966Z,61.20
2022-08-28T03:37:36.056Z,61.90
2022-08-28T03:40:04.129Z,61.60
2022-08-28T03:42:31.551Z,61.50
2022-08-28T03:44:59.421Z,61.50
2022-08-28T03:47:28.235Z,62.00
2022-08-28T03:49:57.741Z,61.10
2022-08-28T03:52:25.309Z,61.90
2022-08-28T03:54:52.464Z,61.40
2022-08-28T03:57:21.280Z,61.10
2022-08-28T03:59:49.811Z,62.40
2022-08-28T04:02:19.214Z,61.50
2022-08-28T04:04:47.663Z,61.50
2022-08-28T04:07:14.488Z,61.30
2022-08-28T04:09:41.193Z,60.50
2022-08-28T04:12:08.757Z,62.20
2022-08-28T04:14:36.059Z,62.30
2022-08-28T04:17:03.599Z,62.20
2022-08-28T04:19:30.491Z,62.00
2022-08-28T04:21:57.404Z,61.30
2022-08-28T04:24:24.401Z,61.20
2022-08-28T04:26:51.102Z,60.90
2022-08-28T04:29:18.483Z,60.40
2022-08-28T04:31:45.412Z,60.20
2022-08-28T04:34:12.247Z,60.20
2022-08-28T04:36:38.975Z,60.00
2022-08-28T04:39:08.472Z,60.10
2022-08-28T04:41:37.262Z,59.90
2022-08-28T04:44:04.813Z,59.80
2022-08-28T04:46:32.176Z,60.50
2022-08-28T04:48:59.468Z,60.20
2022-08-28T04:51:26.400Z,61.20
2022-08-28T04:53:53.161Z,60.90
2022-08-28T04:56:20.064Z,62.00
2022-08-28T04:58:46.799Z,60.80
2022-08-28T05:01:18.898Z,60.30
2022-08-28T05:03:52.370Z,60.80
2022-08-28T05:06:19.102Z,61.20
2022-08-28T05:08:45.838Z,60.40
2022-08-28T05:11:22.089Z,61.20
2022-08-28T05:14:01.583Z,61.50
2022-08-28T05:16:28.383Z,61.60
2022-08-28T05:19:00.089Z,63.70
2022-08-28T05:21:27.762Z,63.60
2022-08-28T05:23:57.329Z,63.10
2022-08-28T05:26:26.920Z,63.70
2022-08-28T05:28:56.460Z,63.70
2022-08-28T05:31:25.141Z,63.70
2022-08-28T05:33:52.829Z,62.80
2022-08-28T05:36:22.808Z,62.30
2022-08-28T05:38:51.205Z,61.80
2022-08-28T05:41:29.130Z,61.50
2022-08-28T05:43:58.601Z,63.20
2022-08-28T05:46:27.383Z,63.00
2022-08-28T05:48:55.464Z,64.10
2022-08-28T05:51:23.953Z,64.40
2022-08-28T05:53:51.547Z,64.50
2022-08-28T05:56:21.853Z,64.70
2022-08-28T05:58:48.607Z,64.40
2022-08-28T06:01:24.082Z,64.50
2022-08-28T06:04:00.383Z,64.70
2022-08-28T06:06:29.302Z,64.80
2022-08-28T06:09:03.889Z,65.80
2022-08-28T06:11:31.819Z,64.90
2022-08-28T06:14:02.937Z,65.00
2022-08-28T06:16:31.932Z,64.80
2022-08-28T06:19:00.586Z,64.20
2022-08-28T06:21:28.318Z,64.50
2022-08-28T06:23:55.454Z,63.80
2022-08-28T06:26:22.921Z,63.60
2022-08-28T06:28:49.650Z,64.10
2022-08-28T06:31:24.714Z,64.30
2022-08-28T06:33:57.469Z,63.80
2022-08-28T06:36:29.857Z,63.90
2022-08-28T06:39:01.078Z,63.80
2022-08-28T06:41:29.256Z,64.50
2022-08-28T06:43:56.490Z,64.50
2022-08-28T06:46:24.989Z,64.90
2022-08-28T06:48:52.681Z,64.40
2022-08-28T06:51:19.952Z,64.30
2022-08-28T06:53:49.916Z,65.10
2022-08-28T06:56:26.465Z,65.10
2022-08-28T06:58:55.767Z,65.30
2022-08-28T07:01:34.804Z,65.20
2022-08-28T07:04:09.349Z,65.50
2022-08-28T07:06:46.755Z,65.50
2022-08-28T07:09:14.240Z,65.50
2022-08-28T07:11:44.657Z,65.20
2022-08-28T07:14:11.481Z,65.30
2022-08-28T07:16:39.472Z,65.20
2022-08-28T07:19:08.278Z,64.50
2022-08-28T07:21:39.443Z,65.10
2022-08-28T07:24:08.681Z,65.10
2022-08-28T07:26:35.988Z,65.10
2022-08-28T07:29:09.894Z,65.10
2022-08-28T07:31:40.721Z,65.20
2022-08-28T07:34:09.082Z,65.10
2022-08-28T07:36:36.009Z,65.10
2022-08-28T07:39:02.990Z,65.00
2022-08-28T07:41:32.662Z,64.80
2022-08-28T07:44:18.360Z,64.70
2022-08-28T07:46:45.816Z,64.30
2022-08-28T07:49:15.423Z,64.40
2022-08-28T07:51:42.082Z,64.40
2022-08-28T07:54:11.613Z,64.30
2022-08-28T07:56:44.514Z,64.10
2022-08-28T07:59:11.875Z,63.70
2022-08-28T08:01:43.650Z,63.80
2022-08-28T08:04:13.203Z,63.50
2022-08-28T08:06:41.768Z,63.40
2022-08-28T08:09:11.699Z,63.00
2022-08-28T08:11:38.367Z,62.50
2022-08-28T08:14:06.094Z,62.50
2022-08-28T08:16:35.924Z,61.60
2022-08-28T08:19:03.394Z,61.50
2022-08-28T08:21:30.735Z,61.30
2022-08-28T08:23:58.292Z,60.70
2022-08-28T08:26:30.336Z,60.60
2022-08-28T08:28:58.100Z,60.30
2022-08-28T08:31:32.192Z,60.30
2022-08-28T08:34:03.000Z,60.20
2022-08-28T08:36:31.579Z,59.80
2022-08-28T08:39:00.413Z,59.60
2022-08-28T08:41:51.707Z,58.90
2022-08-28T08:44:33.216Z,58.70
2022-08-28T08:47:25.794Z,58.90
2022-08-28T08:50:02.986Z,58.40
2022-08-28T08:52:41.605Z,58.50
2022-08-28T08:55:44.729Z,58.20
2022-08-28T08:58:46.280Z,57.50
2022-08-28T09:01:53.147Z,57.40
2022-08-28T09:04:42.892Z,57.50
2022-08-28T09:07:22.403Z,57.30
2022-08-28T09:09:57.556Z,56.50
2022-08-28T09:12:30.313Z,56.60
2022-08-28T09:15:12.779Z,56.70
2022-08-28T09:17:53.699Z,56.20
2022-08-28T09:20:32.856Z,55.60
2022-08-28T09:23:00.668Z,55.50
2022-08-28T09:25:44.280Z,55.20
2022-08-28T09:28:16.818Z,55.00
2022-08-28T09:30:44.627Z,55.20
2022-08-28T09:33:11.353Z,55.20
2022-08-28T09:35:38.237Z,54.10
2022-08-28T09:38:27.671Z,53.60
2022-08-28T09:41:28.452Z,53.50
2022-08-28T09:43:55.883Z,52.60
2022-08-28T09:46:29.130Z,53.40
2022-08-28T09:49:13.320Z,52.70
2022-08-28T09:51:40.519Z,53.00
2022-08-28T09:54:26.114Z,51.70
2022-08-28T09:56:53.177Z,52.20
2022-08-28T09:59:22.952Z,50.80
2022-08-28T10:02:19.578Z,52.50
2022-08-28T10:05:16.240Z,50.90
2022-08-28T10:07:58.365Z,51.80
2022-08-28T10:10:36.626Z,50.90
2022-08-28T10:13:17.266Z,50.60
2022-08-28T10:15:59.072Z,50.60
2022-08-28T10:18:42.043Z,49.10
2022-08-28T10:21:41.886Z,47.60
2022-08-28T10:24:28.465Z,47.70
2022-08-28T10:27:05.133Z,48.00
2022-08-28T10:30:11.281Z,48.80
2022-08-28T10:33:08.753Z,47.10
2022-08-28T10:35:55.501Z,46.90
2022-08-28T10:38:40.033Z,46.60
2022-08-28T10:41:25.305Z,46.50
2022-08-28T10:43:54.586Z,47.60
2022-08-28T10:46:27.478Z,46.00
2022-08-28T10:49:05.403Z,45.10
2022-08-28T10:51:44.252Z,46.10
2022-08-28T10:54:32.753Z,47.60
2022-08-28T10:57:09.577Z,45.10
2022-08-28T10:59:42.379Z,44.90
2022-08-28T11:02:12.522Z,46.60
2022-08-28T11:04:39.860Z,43.60
2022-08-28T11:07:11.273Z,46.70
2022-08-28T11:09:39.772Z,44.00
2022-08-28T11:12:28.637Z,43.10
2022-08-28T11:14:55.326Z,43.40
2022-08-28T11:17:21.967Z,42.10
2022-08-28T11:19:52.619Z,42.60
2022-08-28T11:22:27.019Z,41.40
2022-08-28T11:25:18.810Z,41.30
2022-08-28T11:28:39.375Z,42.00
2022-08-28T11:31:06.118Z,42.10
2022-08-28T11:33:50.481Z,42.20
2022-08-28T11:36:20.258Z,41.60
2022-08-28T11:38:55.728Z,41.00
2022-08-28T11:41:38.910Z,41.90
2022-08-28T11:44:12.377Z,42.50
2022-08-28T11:46:47.788Z,41.10
2022-08-28T11:49:29.535Z,38.10
2022-08-28T11:52:13.618Z,39.10
2022-08-28T11:54:50.575Z,41.70
2022-08-28T11:57:42.440Z,42.40
2022-08-28T12:00:17.572Z,39.00
2022-08-28T12:03:10.467Z,36.60
2022-08-28T12:05:45.946Z,37.70
2022-08-28T12:08:33.270Z,38.20
2022-08-28T12:10:59.979Z,37.90
2022-08-28T12:13:44.029Z,38.90
2022-08-28T12:16:10.730Z,34.90
2022-08-28T12:18:42.593Z,36.70
2022-08-28T12:21:20.799Z,36.00
2022-08-28T12:24:09.909Z,36.30
2022-08-28T12:26:49.986Z,38.00
2022-08-28T12:29:27.461Z,37.80
2022-08-28T12:32:21.176Z,36.70
2022-08-28T12:34:52.861Z,35.10
2022-08-28T12:37:19.508Z,36.90
2022-08-28T12:39:46.207Z,35.90
2022-08-28T12:42:19.039Z,37.80
2022-08-28T12:44:47.323Z,36.20
2022-08-28T12:47:22.717Z,37.20
2022-08-28T12:49:49.431Z,37.80
2022-08-28T12:52:17.546Z,39.00
2022-08-28T12:54:46.222Z,38.00
2022-08-28T12:57:19.663Z,36.20
2022-08-28T12:59:49.857Z,34.50
2022-08-28T13:02:28.187Z,36.40
2022-08-28T13:05:03.021Z,35.90
2022-08-28T13:07:50.863Z,33.80
2022-08-28T13:10:22.491Z,35.20
2022-08-28T13:13:00.807Z,35.60
2022-08-28T13:15:50.221Z,34.90
2022-08-28T13:18:37.144Z,36.40
2022-08-28T13:21:24.623Z,35.80
2022-08-28T13:24:20.528Z,35.30
2022-08-28T13:26:49.102Z,35.40
2022-08-28T13:29:22.942Z,37.20
2022-08-28T13:31:59.665Z,36.20
2022-08-28T13:34:32.377Z,36.60
2022-08-28T13:37:02.780Z,37.60
2022-08-28T13:39:33.918Z,36.50
2022-08-28T13:42:16.413Z,36.80
2022-08-28T13:44:48.543Z,36.30
2022-08-28T13:47:16.705Z,36.70
2022-08-28T13:49:43.767Z,36.40
2022-08-28T13:52:11.075Z,36.80
2022-08-28T13:54:38.160Z,37.20
2022-08-28T13:57:10.436Z,37.70
2022-08-28T13:59:37.199Z,38.60
2022-08-28T14:02:26.243Z,39.20
2022-08-28T14:04:53.701Z,37.60
2022-08-28T14:07:20.494Z,38.70
2022-08-28T14:09:47.551Z,36.60
2022-08-28T14:12:14.224Z,35.90
2022-08-28T14:14:41.215Z,36.20
2022-08-28T14:17:09.721Z,36.20
2022-08-28T14:19:36.931Z,34.60
2022-08-28T14:22:04.168Z,34.70
2022-08-28T14:24:31.056Z,34.60
2022-08-28T14:26:58.704Z,34.00
2022-08-28T14:29:25.611Z,33.40
2022-08-28T14:31:52.390Z,32.70
2022-08-28T14:34:22.538Z,32.70
2022-08-28T14:36:55.227Z,35.30
2022-08-28T14:39:25.516Z,34.20
2022-08-28T14:41:53.252Z,34.60
2022-08-28T14:44:21.661Z,35.30
2022-08-28T14:46:49.472Z,35.70
2022-08-28T14:49:17.752Z,33.10
2022-08-28T14:51:46.421Z,32.10
2022-08-28T14:54:15.847Z,30.60
2022-08-28T14:56:44.108Z,31.60
2022-08-28T14:59:18.405Z,31.30
2022-08-28T15:01:48.900Z,30.80
2022-08-28T15:04:18.376Z,31.80
2022-08-28T15:06:45.648Z,31.10
2022-08-28T15:09:13.912Z,31.20
2022-08-28T15:11:42.185Z,31.70
2022-08-28T15:14:09.020Z,30.80
2022-08-28T15:16:39.712Z,31.50
2022-08-28T15:19:07.357Z,31.70
2022-08-28T15:21:38.322Z,31.30
2022-08-28T15:24:06.624Z,31.50
2022-08-28T15:26:33.581Z,31.90
2022-08-28T15:29:03.460Z,30.50
2022-08-28T15:31:33.131Z,32.00
2022-08-28T15:34:05.051Z,32.10
2022-08-28T15:36:34.423Z,33.10
2022-08-28T15:39:20.984Z,32.90
2022-08-28T15:41:47.774Z,33.20
2022-08-28T15:44:15.211Z,33.10
2022-08-28T15:46:48.863Z,33.60
2022-08-28T15:49:18.443Z,33.40
2022-08-28T15:51:45.260Z,30.90
2022-08-28T15:54:12.873Z,31.10
2022-08-28T15:56:41.547Z,31.80
2022-08-28T15:59:11.876Z,32.70
2022-08-28T16:01:38.803Z,32.90
2022-08-28T16:04:06.570Z,33.80
2022-08-28T16:06:34.735Z,33.80
2022-08-28T16:09:01.428Z,33.20
2022-08-28T16:11:28.628Z,31.80
2022-08-28T16:14:01.092Z,32.60
2022-08-28T16:16:28.060Z,32.60
2022-08-28T16:18:55.317Z,32.50
2022-08-28T16:21:22.859Z,32.10
2022-08-28T16:23:54.339Z,32.40
2022-08-28T16:26:21.244Z,32.80
2022-08-28T16:28:47.963Z,33.00
2022-08-28T16:31:20.652Z,33.10
2022-08-28T16:33:48.610Z,32.30
2022-08-28T16:36:17.171Z,32.20
2022-08-28T16:38:46.243Z,32.20
2022-08-28T16:41:21.850Z,32.20
2022-08-28T16:43:49.568Z,32.00
2022-08-28T16:46:22.131Z,31.80
2022-08-28T16:48:49.267Z,31.60
2022-08-28T16:51:16.882Z,32.10
2022-08-28T16:53:44.131Z,32.90
2022-08-28T16:56:12.904Z,33.10
2022-08-28T16:58:41.083Z,33.30
2022-08-28T17:01:09.592Z,32.00
2022-08-28T17:03:38.102Z,32.30
2022-08-28T17:06:17.917Z,33.10
2022-08-28T17:08:44.651Z,33.00
2022-08-28T17:11:12.169Z,33.30
2022-08-28T17:13:39.962Z,32.50
2022-08-28T17:16:07.978Z,32.50
2022-08-28T17:18:35.139Z,32.90
2022-08-28T17:21:20.428Z,33.10
2022-08-28T17:23:47.635Z,33.00
2022-08-28T17:26:15.527Z,33.50
2022-08-28T17:28:43.266Z,33.10
2022-08-28T17:31:10.795Z,33.30
2022-08-28T17:33:39.372Z,33.20
2022-08-28T17:36:15.302Z,33.10
2022-08-28T17:38:52.381Z,33.50
2022-08-28T17:41:19.168Z,33.40
2022-08-28T17:43:45.872Z,33.10
2022-08-28T17:46:14.304Z,33.30
2022-08-28T17:48:41.109Z,33.50
2022-08-28T17:51:16.091Z,33.80
2022-08-28T17:53:46.199Z,33.40
2022-08-28T17:56:13.361Z,33.60
2022-08-28T17:58:40.052Z,33.60
2022-08-28T18:01:06.784Z,33.90
2022-08-28T18:03:36.653Z,33.90
2022-08-28T18:06:19.450Z,33.80
2022-08-28T18:08:47.688Z,34.20
2022-08-28T18:11:15.132Z,34.40
2022-08-28T18:13:42.484Z,34.40
2022-08-28T18:16:10.276Z,34.60
2022-08-28T18:18:37.038Z,34.80
2022-08-28T18:21:03.998Z,34.60
2022-08-28T18:23:30.992Z,34.70
2022-08-28T18:25:57.708Z,34.70
2022-08-28T18:28:26.207Z,35.10
2022-08-28T18:30:53.789Z,35.30
2022-08-28T18:33:23.582Z,35.40
2022-08-28T18:35:51.536Z,35.60
2022-08-28T18:38:19.732Z,36.00
2022-08-28T18:40:46.854Z,36.40
2022-08-28T18:43:13.912Z,36.50
2022-08-28T18:45:40.718Z,36.90
2022-08-28T18:48:10.328Z,37.10
2022-08-28T18:50:37.923Z,37.80
2022-08-28T18:53:05.454Z,37.10
2022-08-28T18:55:32.921Z,37.40
2022-08-28T18:58:03.717Z,37.60
2022-08-28T19:00:32.777Z,37.70
2022-08-28T19:02:59.923Z,37.80
2022-08-28T19:05:26.949Z,37.80
2022-08-28T19:07:53.794Z,37.90
2022-08-28T19:10:32.602Z,37.90
2022-08-28T19:13:01.057Z,38.00
2022-08-28T19:15:28.627Z,38.30
2022-08-28T19:17:55.565Z,38.40
2022-08-28T19:20:22.559Z,38.50
2022-08-28T19:22:49.736Z,38.70
2022-08-28T19:25:28.022Z,38.90
2022-08-28T19:27:59.138Z,39.00
2022-08-28T19:30:32.732Z,39.20
2022-08-28T19:33:00.695Z,39.20
2022-08-28T19:35:27.365Z,39.40
2022-08-28T19:37:54.257Z,39.30
2022-08-28T19:40:22.076Z,39.30
2022-08-28T19:42:49.961Z,39.40
2022-08-28T19:45:17.729Z,39.40
2022-08-28T19:47:44.620Z,39.50
2022-08-28T19:50:13.853Z,39.60
2022-08-28T19:52:40.974Z,39.80
2022-08-28T19:55:08.600Z,39.90
2022-08-28T19:57:35.385Z,40.00
2022-08-28T20:00:04.011Z,40.20
2022-08-28T20:02:30.792Z,40.40
2022-08-28T20:04:57.526Z,40.60
2022-08-28T20:07:24.992Z,40.60
2022-08-28T20:09:52.107Z,40.60
2022-08-28T20:12:19.019Z,40.70
2022-08-28T20:14:46.109Z,40.70
2022-08-28T20:17:12.765Z,41.20
2022-08-28T20:19:39.453Z,41.50
2022-08-28T20:22:06.163Z,42.00
2022-08-28T20:24:33.072Z,42.20
2022-08-28T20:26:59.793Z,42.20
2022-08-28T20:29:26.502Z,42.20
2022-08-28T20:31:54.087Z,42.00
2022-08-28T20:34:21.235Z,41.80
2022-08-28T20:36:48.531Z,42.30
2022-08-28T20:39:15.750Z,42.00
2022-08-28T20:41:44.081Z,42.10
2022-08-28T20:44:12.829Z,42.10
2022-08-28T20:46:42.031Z,41.90
2022-08-28T20:49:10.113Z,42.00
2022-08-28T20:51:55.648Z,42.10
2022-08-28T20:54:27.499Z,42.10
2022-08-28T20:56:55.648Z,42.40
2022-08-28T20:59:22.989Z,42.60
2022-08-28T21:01:50.984Z,42.60
2022-08-28T21:04:18.433Z,42.90
2022-08-28T21:06:48.096Z,43.00
2022-08-28T21:09:15.646Z,43.00
2022-08-28T21:11:43.935Z,43.10
2022-08-28T21:14:11.038Z,43.70
2022-08-28T21:16:39.235Z,43.30
2022-08-28T21:19:16.058Z,43.50
2022-08-28T21:21:44.004Z,43.60
2022-08-28T21:24:12.756Z,44.10
2022-08-28T21:26:45.268Z,43.80
2022-08-28T21:29:12.855Z,43.60
2022-08-28T21:31:42.725Z,43.70
2022-08-28T21:34:09.932Z,44.10
2022-08-28T21:36:38.136Z,44.00
2022-08-28T21:39:05.864Z,44.00
2022-08-28T21:41:32.662Z,44.00
2022-08-28T21:43:59.312Z,44.10
2022-08-28T21:46:27.501Z,44.40
2022-08-28T21:48:56.128Z,45.00
2022-08-28T21:51:23.892Z,45.30
2022-08-28T21:53:51.721Z,44.80
2022-08-28T21:56:28.845Z,44.50
2022-08-28T21:58:56.940Z,44.30
2022-08-28T22:01:26.812Z,44.30
2022-08-28T22:03:55.459Z,44.20
2022-08-28T22:06:24.230Z,44.30
2022-08-28T22:08:52.197Z,44.20
2022-08-28T22:11:24.529Z,44.30
2022-08-28T22:13:53.077Z,44.40
2022-08-28T22:16:20.873Z,44.70
2022-08-28T22:18:47.591Z,45.50
2022-08-28T22:21:35.033Z,45.70
2022-08-28T22:24:01.958Z,45.10
2022-08-28T22:26:29.183Z,44.90
2022-08-28T22:28:56.163Z,44.90
2022-08-28T22:31:23.401Z,44.80
2022-08-28T22:33:50.407Z,45.40
2022-08-28T22:36:17.347Z,45.30
2022-08-28T22:38:46.985Z,45.40
2022-08-28T22:41:20.394Z,45.20
2022-08-28T22:43:50.907Z,45.50
2022-08-28T22:46:20.523Z,45.90
2022-08-28T22:48:47.936Z,46.30
2022-08-28T22:51:18.362Z,46.40
2022-08-28T22:53:45.338Z,46.60
2022-08-28T22:56:12.943Z,46.90
2022-08-28T22:58:39.959Z,47.10
2022-08-28T23:01:15.408Z,46.50
2022-08-28T23:03:42.702Z,46.30
2022-08-28T23:06:09.571Z,47.60
2022-08-28T23:08:36.543Z,49.40
2022-08-28T23:11:03.774Z,49.10
2022-08-28T23:13:30.960Z,49.70
2022-08-28T23:15:57.791Z,50.20
2022-08-28T23:18:25.070Z,49.50
2022-08-28T23:20:52.421Z,49.60
2022-08-28T23:23:20.075Z,48.60
2022-08-28T23:25:47.111Z,48.10
2022-08-28T23:28:13.769Z,47.60
2022-08-28T23:30:43.934Z,47.40
2022-08-28T23:33:23.168Z,47.30
2022-08-28T23:35:51.479Z,47.30
2022-08-28T23:38:18.325Z,47.30
2022-08-28T23:40:47.975Z,47.30
2022-08-28T23:43:15.169Z,48.40
2022-08-28T23:45:43.935Z,48.40
2022-08-28T23:48:11.265Z,47.80
2022-08-28T23:50:41.354Z,47.50
2022-08-28T23:53:08.616Z,47.40
2022-08-28T23:55:36.655Z,47.40
2022-08-28T23:58:05.470Z,47.70
